createdAt,value
2023-05-10T00:00:45.246Z,3.70
2023-05-10T00:04:43.583Z,4.80
2023-05-10T00:08:45.286Z,4.90
2023-05-10T00:12:43.776Z,3.00
2023-05-10T00:16:45.569Z,4.80
2023-05-10T00:20:43.764Z,3.10
2023-05-10T00:24:45.681Z,2.40
2023-05-10T00:28:43.596Z,3.20
2023-05-10T00:32:45.382Z,2.50
2023-05-10T00:36:43.635Z,2.50
2023-05-10T00:40:45.239Z,4.30
2023-05-10T00:44:49.629Z,5.00
2023-05-10T00:48:51.215Z,4.20
2023-05-10T00:52:48.758Z,3.00
2023-05-10T00:56:49.732Z,2.60
2023-05-10T01:00:47.611Z,2.40
2023-05-10T01:04:49.282Z,2.10
2023-05-10T01:08:47.755Z,3.80
2023-05-10T01:12:46.667Z,4.40
2023-05-10T01:16:41.850Z,4.20
2023-05-10T01:20:42.745Z,2.80
2023-05-10T01:24:39.062Z,2.40
2023-05-10T01:28:38.766Z,3.20
2023-05-10T01:32:34.977Z,2.50
2023-05-10T01:36:34.402Z,5.20
2023-05-10T01:40:30.164Z,4.80
2023-05-10T01:44:29.344Z,5.30
2023-05-10T01:48:24.995Z,8.10
2023-05-10T01:52:24.751Z,5.50
2023-05-10T01:56:22.218Z,6.30
2023-05-10T02:00:21.461Z,5.60
2023-05-10T02:04:19.949Z,7.90
2023-05-10T02:08:19.054Z,6.50
2023-05-10T02:12:14.907Z,7.10
2023-05-10T02:16:14.681Z,6.20
2023-05-10T02:20:09.829Z,7.30
2023-05-10T02:24:08.713Z,7.50
2023-05-10T02:28:04.229Z,8.00
2023-05-10T02:32:03.475Z,5.60
2023-05-10T02:36:00.134Z,5.90
2023-05-10T02:39:59.666Z,5.70
2023-05-10T02:43:54.934Z,6.60
2023-05-10T02:47:53.303Z,5.90
2023-05-10T02:51:53.640Z,7.70
2023-05-10T02:55:48.841Z,7.10
2023-05-10T02:59:48.077Z,6.50
2023-05-10T03:03:44.470Z,7.50
2023-05-10T03:07:48.884Z,7.30
2023-05-10T03:11:50.939Z,7.10
2023-05-10T03:15:50.823Z,10.20
2023-05-10T03:19:52.551Z,6.30
2023-05-10T03:23:50.847Z,9.40
2023-05-10T03:27:51.870Z,11.50
2023-05-10T03:31:51.403Z,7.60
2023-05-10T03:35:53.902Z,10.50
2023-05-10T03:39:51.851Z,7.50
2023-05-10T03:43:54.073Z,8.80
2023-05-10T03:47:51.919Z,8.90
2023-05-10T03:51:53.958Z,15.50
2023-05-10T03:55:51.969Z,8.50
2023-05-10T03:59:53.355Z,7.00
2023-05-10T04:03:52.216Z,9.80
2023-05-10T04:07:54.030Z,9.80
2023-05-10T04:11:51.901Z,7.50
2023-05-10T04:15:53.595Z,9.60
2023-05-10T04:19:52.239Z,8.20
2023-05-10T04:23:53.567Z,8.40
2023-05-10T04:27:52.011Z,9.10
2023-05-10T04:31:53.604Z,8.70
2023-05-10T04:35:52.045Z,6.20
2023-05-10T04:39:53.435Z,8.50
2023-05-10T04:43:52.020Z,8.00
2023-05-10T04:47:53.598Z,9.10
2023-05-10T04:51:55.034Z,7.40
2023-05-10T04:55:52.952Z,6.90
2023-05-10T04:59:54.686Z,8.90
2023-05-10T05:03:53.178Z,9.00
2023-05-10T05:07:55.005Z,6.60
2023-05-10T05:11:53.158Z,9.40
2023-05-10T05:15:52.908Z,9.60
2023-05-10T05:19:48.400Z,5.40
2023-05-10T05:23:47.963Z,6.30
2023-05-10T05:27:43.431Z,7.80
2023-05-10T05:31:43.008Z,7.00
2023-05-10T05:35:38.334Z,7.50
2023-05-10T05:39:37.259Z,6.50
2023-05-10T05:43:38.360Z,6.30
2023-05-10T05:47:38.390Z,7.20
2023-05-10T05:51:34.568Z,6.70
2023-05-10T05:55:33.990Z,4.70
2023-05-10T05:59:29.319Z,6.60
2023-05-10T06:03:28.502Z,4.60
2023-05-10T06:07:24.317Z,6.90
2023-05-10T06:11:23.472Z,8.30
2023-05-10T06:15:19.553Z,5.80
2023-05-10T06:19:19.282Z,6.60
2023-05-10T06:23:14.394Z,7.90
2023-05-10T06:27:13.313Z,6.20
2023-05-10T06:31:08.583Z,9.00
2023-05-10T06:35:07.857Z,5.20
2023-05-10T06:39:03.346Z,4.30
2023-05-10T06:43:02.464Z,6.30
2023-05-10T06:46:58.625Z,5.20
2023-05-10T06:50:58.169Z,6.10
2023-05-10T06:54:53.746Z,4.90
2023-05-10T06:58:52.932Z,3.80
2023-05-10T07:02:48.519Z,7.10
2023-05-10T07:06:53.192Z,2.10
2023-05-10T07:10:54.786Z,2.80
2023-05-10T07:14:53.256Z,3.50
2023-05-10T07:18:52.738Z,4.20
2023-05-10T07:22:51.268Z,3.40
2023-05-10T07:26:53.326Z,3.20
2023-05-10T07:30:48.730Z,5.00
2023-05-10T07:34:50.502Z,3.30
2023-05-10T07:38:48.489Z,3.10
2023-05-10T07:42:49.842Z,2.90
2023-05-10T07:46:48.458Z,5.00
2023-05-10T07:50:50.104Z,5.00
2023-05-10T07:54:48.400Z,2.50
2023-05-10T07:58:50.472Z,5.10
2023-05-10T08:02:47.558Z,2.60
2023-05-10T08:06:49.318Z,2.50
2023-05-10T08:10:47.501Z,2.30
2023-05-10T08:14:48.912Z,2.60
2023-05-10T08:18:47.455Z,1.80
2023-05-10T08:22:51.151Z,10.40
2023-05-10T08:26:51.756Z,3.90
2023-05-10T08:30:55.416Z,2.30
2023-05-10T08:34:53.288Z,1.40
2023-05-10T08:38:55.472Z,4.20
2023-05-10T08:42:52.305Z,2.70
2023-05-10T08:46:54.094Z,3.10
2023-05-10T08:50:52.694Z,1.60
2023-05-10T08:54:54.314Z,5.80
2023-05-10T08:58:52.553Z,3.20
2023-05-10T09:02:54.585Z,3.20
2023-05-10T09:06:51.332Z,2.50
2023-05-10T09:10:51.022Z,2.00
2023-05-10T09:14:46.777Z,2.10
2023-05-10T09:18:46.458Z,4.30
2023-05-10T09:22:41.771Z,3.10
2023-05-10T09:26:43.548Z,2.00
2023-05-10T09:30:38.690Z,4.80
2023-05-10T09:34:38.258Z,3.20
2023-05-10T09:38:30.501Z,2.00
2023-05-10T09:42:15.538Z,4.90
2023-05-10T09:46:00.626Z,3.10
2023-05-10T09:49:45.752Z,3.00
2023-05-10T09:53:30.793Z,5.10
2023-05-10T09:57:15.959Z,3.10
2023-05-10T10:01:09.311Z,2.50
2023-05-10T10:05:08.963Z,7.70
2023-05-10T10:09:04.788Z,3.10
2023-05-10T10:13:04.544Z,2.60
2023-05-10T10:17:08.439Z,2.80
2023-05-10T10:21:08.563Z,1.80
2023-05-10T10:25:03.957Z,8.30
2023-05-10T10:29:01.342Z,1.70
2023-05-10T10:32:46.483Z,2.10
2023-05-10T10:36:32.070Z,1.70
2023-05-10T10:40:17.611Z,2.30
2023-05-10T10:44:02.674Z,2.90
2023-05-10T10:47:47.646Z,2.40
2023-05-10T10:51:32.912Z,2.60
2023-05-10T10:55:18.225Z,1.70
2023-05-10T10:59:03.571Z,2.10
2023-05-10T11:02:54.677Z,2.80
2023-05-10T11:06:55.979Z,1.40
2023-05-10T11:10:57.699Z,3.40
2023-05-10T11:14:55.109Z,1.90
2023-05-10T11:18:56.610Z,3.00
2023-05-10T11:22:54.125Z,2.40
2023-05-10T11:26:55.769Z,2.20
2023-05-10T11:30:53.861Z,3.50
2023-05-10T11:34:55.322Z,2.70
2023-05-10T11:38:53.712Z,2.30
2023-05-10T11:42:52.872Z,2.80
2023-05-10T11:46:50.826Z,4.30
2023-05-10T11:50:50.310Z,3.50
2023-05-10T11:54:48.708Z,5.30
2023-05-10T11:58:53.987Z,1.80
2023-05-10T12:02:53.047Z,1.30
2023-05-10T12:06:54.853Z,1.90
2023-05-10T12:10:49.982Z,1.30
2023-05-10T12:14:51.860Z,1.10
2023-05-10T12:18:47.147Z,1.90
2023-05-10T12:22:48.814Z,2.20
2023-05-10T12:31:01.739Z,2.10
2023-05-10T12:34:59.908Z,1.60
2023-05-10T12:39:01.268Z,1.30
2023-05-10T12:42:59.920Z,1.30
2023-05-10T12:46:58.827Z,1.60
2023-05-10T12:51:00.446Z,2.10
2023-05-10T12:54:56.201Z,1.20
2023-05-10T12:58:57.781Z,1.80
2023-05-10T13:02:56.156Z,2.30
2023-05-10T13:06:57.802Z,3.90
2023-05-10T13:10:55.285Z,1.60
2023-05-10T13:14:55.471Z,2.50
2023-05-10T13:18:53.077Z,1.00
2023-05-10T13:22:52.263Z,1.30
2023-05-10T13:26:50.385Z,1.80
2023-05-10T13:30:49.906Z,2.50
2023-05-10T13:34:47.190Z,1.30
2023-05-10T13:38:46.848Z,2.00
2023-05-10T13:42:44.247Z,1.50
2023-05-10T13:46:44.600Z,3.90
2023-05-10T13:50:41.688Z,2.60
2023-05-10T13:54:41.477Z,3.20
2023-05-10T13:58:39.115Z,3.40
2023-05-10T14:02:38.570Z,9.00
2023-05-10T14:06:36.426Z,3.50
2023-05-10T14:10:34.521Z,2.50
2023-05-10T14:14:32.442Z,2.60
2023-05-10T14:18:32.784Z,2.90
2023-05-10T14:22:30.368Z,4.40
2023-05-10T14:26:30.442Z,5.10
2023-05-10T14:30:28.650Z,3.20
2023-05-10T14:34:29.560Z,3.00
2023-05-10T14:38:28.193Z,3.00
2023-05-10T14:42:29.588Z,9.60
2023-05-10T14:46:28.022Z,4.60
2023-05-10T14:50:36.060Z,6.30
2023-05-10T14:54:36.205Z,3.60
2023-05-10T14:58:37.578Z,10.00
2023-05-10T15:02:36.109Z,3.90
2023-05-10T15:06:37.611Z,6.40
2023-05-10T15:10:36.257Z,5.80
2023-05-10T15:14:37.480Z,3.60
2023-05-10T15:18:36.293Z,7.90
2023-05-10T15:22:37.596Z,4.00
2023-05-10T15:26:36.167Z,6.90
2023-05-10T15:30:37.614Z,3.60
2023-05-10T15:34:37.087Z,6.60
2023-05-10T15:38:38.725Z,6.40
2023-05-10T15:42:37.255Z,4.50
2023-05-10T15:46:37.077Z,7.60
2023-05-10T15:50:38.785Z,3.60
2023-05-10T15:54:37.301Z,2.70
2023-05-10T15:58:38.769Z,4.90
2023-05-10T16:02:37.478Z,7.10
2023-05-10T16:06:38.752Z,6.00
2023-05-10T16:10:37.154Z,1.80
2023-05-10T16:14:38.886Z,7.90
2023-05-10T16:18:36.422Z,21.20
2023-05-10T16:22:37.761Z,15.30
2023-05-10T16:26:36.368Z,6.10
2023-05-10T16:30:37.755Z,2.60
2023-05-10T16:34:37.171Z,2.30
2023-05-10T16:38:38.916Z,2.70
2023-05-10T16:42:36.362Z,3.00
2023-05-10T16:46:36.922Z,4.90
2023-05-10T16:50:34.684Z,4.20
2023-05-10T16:54:34.963Z,2.90
2023-05-10T16:58:33.440Z,26.60
2023-05-10T17:02:34.107Z,4.20
2023-05-10T17:06:31.999Z,13.40
2023-05-10T17:10:32.084Z,14.20
2023-05-10T17:14:29.630Z,12.70
2023-05-10T17:18:30.061Z,17.30
2023-05-10T17:22:27.583Z,21.30
2023-05-10T17:26:28.042Z,19.00
2023-05-10T17:30:25.700Z,16.20
2023-05-10T17:34:26.498Z,21.70
2023-05-10T17:38:24.924Z,21.20
2023-05-10T17:42:27.094Z,13.90
2023-05-10T17:46:24.471Z,8.60
2023-05-10T17:50:25.015Z,5.90
2023-05-10T17:54:22.598Z,4.30
2023-05-10T17:58:22.175Z,8.80
2023-05-10T18:02:19.521Z,6.30
2023-05-10T18:06:20.139Z,9.40
2023-05-10T18:10:17.465Z,6.60
2023-05-10T18:14:32.024Z,9.70
2023-05-10T18:18:36.657Z,8.80
2023-05-10T18:22:37.071Z,10.50
2023-05-10T18:26:35.094Z,6.00
2023-05-10T18:30:34.921Z,11.00
2023-05-10T18:34:35.027Z,10.70
2023-05-10T18:38:32.893Z,8.70
2023-05-10T18:42:31.042Z,6.40
2023-05-10T18:46:28.883Z,6.90
2023-05-10T18:50:28.043Z,7.30
2023-05-10T18:54:25.818Z,6.10
2023-05-10T18:58:25.036Z,12.70
2023-05-10T19:02:22.745Z,7.40
2023-05-10T19:06:33.547Z,10.60
2023-05-10T19:10:31.531Z,21.30
2023-05-10T19:14:31.750Z,11.50
2023-05-10T19:18:33.632Z,14.50
2023-05-10T19:22:54.201Z,10.90
2023-05-10T19:27:01.878Z,5.60
2023-05-10T19:31:03.885Z,5.70
2023-05-10T19:35:06.125Z,5.60
2023-05-10T19:39:06.003Z,4.70
2023-05-10T19:43:07.436Z,4.70
2023-05-10T19:47:05.721Z,3.20
2023-05-10T19:51:09.976Z,4.60
2023-05-10T19:55:10.122Z,4.30
2023-05-10T19:59:08.475Z,3.60
2023-05-10T20:03:09.982Z,4.70
2023-05-10T20:07:11.688Z,4.80
2023-05-10T20:11:10.474Z,4.00
2023-05-10T20:15:12.152Z,4.00
2023-05-10T20:19:10.895Z,6.30
2023-05-10T20:23:12.551Z,2.90
2023-05-10T20:27:10.893Z,4.50
2023-05-10T20:31:12.934Z,8.30
2023-05-10T20:35:11.578Z,5.50
2023-05-10T20:39:13.197Z,3.70
2023-05-10T20:43:11.684Z,4.80
2023-05-10T20:47:13.353Z,5.40
2023-05-10T20:51:11.795Z,4.30
2023-05-10T20:55:13.079Z,3.40
2023-05-10T20:59:11.727Z,4.40
2023-05-10T21:03:13.090Z,4.10
2023-05-10T21:07:11.776Z,6.20
2023-05-10T21:11:11.519Z,5.40
2023-05-10T21:15:07.240Z,3.70
2023-05-10T21:19:06.272Z,3.50
2023-05-10T21:23:01.878Z,5.80
2023-05-10T21:27:00.973Z,7.60
2023-05-10T21:30:57.359Z,4.10
2023-05-10T21:34:56.461Z,2.90
2023-05-10T21:38:51.736Z,5.00
2023-05-10T21:42:46.831Z,5.00
2023-05-10T21:46:45.971Z,5.30
2023-05-10T21:50:42.185Z,14.10
2023-05-10T21:54:41.755Z,3.40
2023-05-10T21:58:37.035Z,4.50
2023-05-10T22:02:36.488Z,4.80
2023-05-10T22:06:31.866Z,4.50
2023-05-10T22:10:31.044Z,4.60
2023-05-10T22:14:27.257Z,4.70
2023-05-10T22:18:26.789Z,3.60
2023-05-10T22:22:22.006Z,5.60
2023-05-10T22:26:20.788Z,4.90
2023-05-10T22:30:16.410Z,6.60
2023-05-10T22:34:16.362Z,7.80
2023-05-10T22:38:12.120Z,5.10
2023-05-10T22:42:11.502Z,5.70
2023-05-10T22:46:07.268Z,5.20
2023-05-10T22:50:06.934Z,7.00
2023-05-10T22:54:02.009Z,3.70
2023-05-10T22:58:01.026Z,5.90
2023-05-10T23:01:56.044Z,5.10
2023-05-10T23:06:00.863Z,4.90
2023-05-10T23:10:02.560Z,6.20
2023-05-10T23:14:00.771Z,4.40
2023-05-10T23:18:02.321Z,6.60
2023-05-10T23:22:01.186Z,5.80
2023-05-10T23:26:02.812Z,4.00
2023-05-10T23:30:01.028Z,5.30
2023-05-10T23:34:02.451Z,7.80
2023-05-10T23:38:00.912Z,8.50
2023-05-10T23:42:02.592Z,6.80
2023-05-10T23:46:01.024Z,3.80
2023-05-10T23:50:02.557Z,5.70
2023-05-10T23:54:01.051Z,7.50
2023-05-10T23:57:58.973Z,5.20
